createdAt,value
2019-01-29T00:00:46.549Z,18.02
2019-01-29T00:01:47.112Z,18.02
2019-01-29T00:02:48.367Z,18
2019-01-29T00:03:46.574Z,18.01
2019-01-29T00:04:49.238Z,18
2019-01-29T00:05:46.608Z,18
2019-01-29T00:06:46.560Z,17.99
2019-01-29T00:07:46.642Z,17.98
2019-01-29T00:08:46.586Z,17.98
2019-01-29T00:09:46.572Z,17.98
2019-01-29T00:10:46.667Z,17.98
2019-01-29T00:11:46.628Z,17.97
2019-01-29T00:12:46.559Z,17.97
2019-01-29T00:13:46.796Z,17.96
2019-01-29T00:14:47.204Z,17.94
2019-01-29T00:15:46.518Z,17.94
2019-01-29T00:16:46.706Z,17.93
2019-01-29T00:17:46.663Z,17.93
2019-01-29T00:18:46.620Z,17.93
2019-01-29T00:19:46.560Z,17.92
2019-01-29T00:20:46.634Z,17.92
2019-01-29T00:21:46.643Z,17.92
2019-01-29T00:22:46.758Z,17.91
2019-01-29T00:23:46.395Z,17.91
2019-01-29T00:24:46.699Z,17.9
2019-01-29T00:25:47.283Z,17.89
2019-01-29T00:26:46.888Z,17.89
2019-01-29T00:27:46.780Z,17.88
2019-01-29T00:28:46.545Z,17.87
2019-01-29T00:29:46.513Z,17.88
2019-01-29T00:30:46.559Z,17.87
2019-01-29T00:31:46.548Z,17.86
2019-01-29T00:32:46.598Z,17.86
2019-01-29T00:33:48.369Z,17.86
2019-01-29T00:34:46.598Z,17.85
2019-01-29T00:35:47.624Z,17.84
2019-01-29T00:36:46.418Z,17.84
2019-01-29T00:37:47.299Z,17.84
2019-01-29T00:38:47.062Z,17.83
2019-01-29T00:39:46.469Z,17.83
2019-01-29T00:40:46.470Z,17.83
2019-01-29T00:41:46.633Z,17.83
2019-01-29T00:42:46.313Z,17.81
2019-01-29T00:43:46.908Z,17.8
2019-01-29T00:44:46.630Z,17.8
2019-01-29T00:45:46.640Z,17.79
2019-01-29T00:46:46.399Z,17.78
2019-01-29T00:47:46.822Z,17.79
2019-01-29T00:48:46.850Z,17.78
2019-01-29T00:49:46.582Z,17.77
2019-01-29T00:50:46.774Z,17.77
2019-01-29T00:51:46.633Z,17.77
2019-01-29T00:52:46.339Z,17.78
2019-01-29T00:53:46.967Z,17.77
2019-01-29T00:54:46.975Z,17.77
2019-01-29T00:55:46.893Z,17.77
2019-01-29T00:56:46.590Z,17.76
2019-01-29T00:57:46.412Z,17.76
2019-01-29T00:58:46.685Z,17.75
2019-01-29T00:59:47.032Z,17.75
2019-01-29T01:00:46.510Z,17.74
2019-01-29T01:01:46.737Z,17.73
2019-01-29T01:02:46.601Z,17.73
2019-01-29T01:03:46.402Z,17.74
2019-01-29T01:04:46.666Z,17.72
2019-01-29T01:05:46.857Z,17.73
2019-01-29T01:06:46.770Z,17.71
2019-01-29T01:07:46.552Z,17.72
2019-01-29T01:08:46.573Z,17.71
2019-01-29T01:09:46.792Z,17.7
2019-01-29T01:10:46.896Z,17.69
2019-01-29T01:11:46.882Z,17.7
2019-01-29T01:12:46.710Z,17.69
2019-01-29T01:13:46.894Z,17.69
2019-01-29T01:14:46.328Z,17.68
2019-01-29T01:15:46.830Z,17.69
2019-01-29T01:16:46.842Z,17.67
2019-01-29T01:17:46.328Z,17.67
2019-01-29T01:18:46.666Z,17.67
2019-01-29T01:19:46.974Z,17.66
2019-01-29T01:20:46.388Z,17.65
2019-01-29T01:21:46.800Z,17.65
2019-01-29T01:22:50.919Z,17.64
2019-01-29T01:23:46.546Z,17.65
2019-01-29T01:24:46.804Z,17.63
2019-01-29T01:25:46.566Z,17.63
2019-01-29T01:26:46.819Z,17.63
2019-01-29T01:27:46.541Z,17.62
2019-01-29T01:28:46.721Z,17.61
2019-01-29T01:29:46.598Z,17.62
2019-01-29T01:30:46.615Z,17.62
2019-01-29T01:31:46.395Z,17.6
2019-01-29T01:32:46.677Z,17.59
2019-01-29T01:33:46.404Z,17.59
2019-01-29T01:34:46.707Z,17.59
2019-01-29T01:35:46.569Z,17.59
2019-01-29T01:36:46.979Z,17.59
2019-01-29T01:37:46.461Z,17.59
2019-01-29T01:38:46.454Z,17.6
2019-01-29T01:39:46.462Z,17.58
2019-01-29T01:40:46.503Z,17.57
2019-01-29T01:41:46.905Z,17.58
2019-01-29T01:42:46.333Z,17.58
2019-01-29T01:43:46.439Z,17.57
2019-01-29T01:44:46.837Z,17.57
2019-01-29T01:45:46.280Z,17.55
2019-01-29T01:46:46.535Z,17.56
2019-01-29T01:47:46.630Z,17.56
2019-01-29T01:48:46.355Z,17.55
2019-01-29T01:49:46.679Z,17.55
2019-01-29T01:50:46.348Z,17.54
2019-01-29T01:51:46.506Z,17.54
2019-01-29T01:52:46.799Z,17.53
2019-01-29T01:53:48.435Z,17.53
2019-01-29T01:54:46.601Z,17.53
2019-01-29T01:55:46.602Z,17.51
2019-01-29T01:56:46.615Z,17.52
2019-01-29T01:57:46.900Z,17.52
2019-01-29T01:58:46.281Z,17.5
2019-01-29T01:59:46.664Z,17.5
2019-01-29T02:00:46.341Z,17.5
2019-01-29T02:01:46.477Z,17.49
2019-01-29T02:02:46.769Z,17.5
2019-01-29T02:03:46.780Z,17.48
2019-01-29T02:04:46.558Z,17.5
2019-01-29T02:05:46.780Z,17.5
2019-01-29T02:06:46.890Z,17.49
2019-01-29T02:07:46.696Z,17.48
2019-01-29T02:08:46.502Z,17.48
2019-01-29T02:09:46.728Z,17.49
2019-01-29T02:10:46.386Z,17.47
2019-01-29T02:11:47.037Z,17.45
2019-01-29T02:12:46.374Z,17.46
2019-01-29T02:13:46.492Z,17.45
2019-01-29T02:14:46.656Z,17.45
2019-01-29T02:15:46.832Z,17.45
2019-01-29T02:16:47.243Z,17.44
2019-01-29T02:17:46.263Z,17.45
2019-01-29T02:18:46.427Z,17.45
2019-01-29T02:19:47.816Z,17.45
2019-01-29T02:20:46.297Z,17.43
2019-01-29T02:21:46.886Z,17.44
2019-01-29T02:22:46.408Z,17.44
2019-01-29T02:23:46.289Z,17.42
2019-01-29T02:24:47.053Z,17.42
2019-01-29T02:25:46.645Z,17.42
2019-01-29T02:26:46.467Z,17.43
2019-01-29T02:27:46.750Z,17.44
2019-01-29T02:28:49.205Z,17.43
2019-01-29T02:29:46.625Z,17.41
2019-01-29T02:30:46.561Z,17.41
2019-01-29T02:31:46.313Z,17.41
2019-01-29T02:32:46.814Z,17.4
2019-01-29T02:33:46.531Z,17.41
2019-01-29T02:34:46.596Z,17.39
2019-01-29T02:35:46.557Z,17.39
2019-01-29T02:36:46.671Z,17.4
2019-01-29T02:37:46.521Z,17.4
2019-01-29T02:38:46.827Z,17.39
2019-01-29T02:39:46.449Z,17.39
2019-01-29T02:40:46.528Z,17.38
2019-01-29T02:41:46.504Z,17.38
2019-01-29T02:42:46.491Z,17.38
2019-01-29T02:43:46.875Z,17.38
2019-01-29T02:44:46.420Z,17.37
2019-01-29T02:45:46.393Z,17.36
2019-01-29T02:46:47.917Z,17.36
2019-01-29T02:47:46.631Z,17.36
2019-01-29T02:48:46.401Z,17.35
2019-01-29T02:49:46.998Z,17.36
2019-01-29T02:50:46.263Z,17.35
2019-01-29T02:51:46.681Z,17.35
2019-01-29T02:52:46.439Z,17.35
2019-01-29T02:53:46.335Z,17.34
2019-01-29T02:54:46.492Z,17.34
2019-01-29T02:55:47.430Z,17.34
2019-01-29T02:56:46.458Z,17.33
2019-01-29T02:57:46.744Z,17.33
2019-01-29T02:58:46.972Z,17.33
2019-01-29T02:59:46.436Z,17.33
2019-01-29T03:00:46.861Z,17.33
2019-01-29T03:01:46.531Z,17.32
2019-01-29T03:02:46.682Z,17.31
2019-01-29T03:03:46.898Z,17.31
2019-01-29T03:04:46.358Z,17.3
2019-01-29T03:05:46.595Z,17.31
2019-01-29T03:06:47.030Z,17.31
2019-01-29T03:07:46.831Z,17.3
2019-01-29T03:08:46.705Z,17.29
2019-01-29T03:09:46.392Z,17.29
2019-01-29T03:10:46.412Z,17.29
2019-01-29T03:11:46.777Z,17.29
2019-01-29T03:12:46.608Z,17.29
2019-01-29T03:13:46.796Z,17.27
2019-01-29T03:14:46.551Z,17.28
2019-01-29T03:15:47.097Z,17.27
2019-01-29T03:16:46.464Z,17.27
2019-01-29T03:17:46.761Z,17.26
2019-01-29T03:18:47.226Z,17.27
2019-01-29T03:19:46.386Z,17.27
2019-01-29T03:20:46.525Z,17.27
2019-01-29T03:21:46.411Z,17.27
2019-01-29T03:22:46.531Z,17.26
2019-01-29T03:23:46.952Z,17.24
2019-01-29T03:24:46.635Z,17.24
2019-01-29T03:25:46.733Z,17.24
2019-01-29T03:26:46.624Z,17.24
2019-01-29T03:27:46.248Z,17.24
2019-01-29T03:28:46.660Z,17.23
2019-01-29T03:29:46.375Z,17.23
2019-01-29T03:30:46.687Z,17.23
2019-01-29T03:31:46.788Z,17.23
2019-01-29T03:32:46.475Z,17.21
2019-01-29T03:33:46.778Z,17.22
2019-01-29T03:34:46.630Z,17.22
2019-01-29T03:35:46.593Z,17.21
2019-01-29T03:36:46.628Z,17.22
2019-01-29T03:37:46.334Z,17.22
2019-01-29T03:38:46.833Z,17.21
2019-01-29T03:39:46.619Z,17.22
2019-01-29T03:40:46.542Z,17.22
2019-01-29T03:41:46.549Z,17.2
2019-01-29T03:42:46.584Z,17.2
2019-01-29T03:43:48.035Z,17.19
2019-01-29T03:44:46.471Z,17.2
2019-01-29T03:45:46.588Z,17.2
2019-01-29T03:46:46.372Z,17.2
2019-01-29T03:47:46.586Z,17.19
2019-01-29T03:48:46.336Z,17.2
2019-01-29T03:49:46.359Z,17.19
2019-01-29T03:50:46.515Z,17.18
2019-01-29T03:51:46.213Z,17.17
2019-01-29T03:52:46.410Z,17.17
2019-01-29T03:53:48.347Z,17.15
2019-01-29T03:54:46.535Z,17.16
2019-01-29T03:55:46.477Z,17.16
2019-01-29T03:56:46.542Z,17.17
2019-01-29T03:57:46.449Z,17.15
2019-01-29T03:58:48.286Z,17.15
2019-01-29T03:59:46.356Z,17.15
2019-01-29T04:00:46.291Z,17.15
2019-01-29T04:01:46.385Z,17.15
2019-01-29T04:02:46.297Z,17.14
2019-01-29T04:03:47.198Z,17.15
2019-01-29T04:04:46.732Z,17.15
2019-01-29T04:05:46.269Z,17.14
2019-01-29T04:06:46.611Z,17.14
2019-01-29T04:07:46.674Z,17.15
2019-01-29T04:08:46.761Z,17.12
2019-01-29T04:09:46.451Z,17.13
2019-01-29T04:10:46.530Z,17.12
2019-01-29T04:11:46.766Z,17.13
2019-01-29T04:12:46.659Z,17.13
2019-01-29T04:13:46.879Z,17.12
2019-01-29T04:14:46.688Z,17.11
2019-01-29T04:15:46.676Z,17.11
2019-01-29T04:16:46.610Z,17.1
2019-01-29T04:17:46.590Z,17.1
2019-01-29T04:18:46.522Z,17.11
2019-01-29T04:19:46.630Z,17.1
2019-01-29T04:20:46.613Z,17.11
2019-01-29T04:21:46.817Z,17.1
2019-01-29T04:22:46.345Z,17.1
2019-01-29T04:23:47.553Z,17.09
2019-01-29T04:24:46.781Z,17.11
2019-01-29T04:25:46.293Z,17.1
2019-01-29T04:26:46.588Z,17.09
2019-01-29T04:27:46.602Z,17.1
2019-01-29T04:28:46.796Z,17.09
2019-01-29T04:29:46.541Z,17.1
2019-01-29T04:30:47.196Z,17.09
2019-01-29T04:31:46.314Z,17.07
2019-01-29T04:32:46.681Z,17.07
2019-01-29T04:33:46.725Z,17.08
2019-01-29T04:34:47.140Z,17.07
2019-01-29T04:35:47.501Z,17.05
2019-01-29T04:36:46.733Z,17.07
2019-01-29T04:37:46.859Z,17.06
2019-01-29T04:38:46.429Z,17.05
2019-01-29T04:39:46.747Z,17.07
2019-01-29T04:40:46.846Z,17.07
2019-01-29T04:41:46.290Z,17.07
2019-01-29T04:42:46.386Z,17.07
2019-01-29T04:43:46.885Z,17.07
2019-01-29T04:44:46.319Z,17.07
2019-01-29T04:45:46.402Z,17.08
2019-01-29T04:46:46.579Z,17.07
2019-01-29T04:47:46.298Z,17.08
2019-01-29T04:48:46.627Z,17.09
2019-01-29T04:49:46.649Z,17.1
2019-01-29T04:50:46.406Z,17.1
2019-01-29T04:51:46.472Z,17.11
2019-01-29T04:52:46.647Z,17.11
2019-01-29T04:53:46.679Z,17.12
2019-01-29T04:54:46.673Z,17.13
2019-01-29T04:55:46.764Z,17.13
2019-01-29T04:56:46.581Z,17.14
2019-01-29T04:57:47.052Z,17.15
2019-01-29T04:58:46.775Z,17.16
2019-01-29T04:59:46.357Z,17.17
2019-01-29T05:00:47.828Z,17.17
2019-01-29T05:01:46.384Z,17.18
2019-01-29T05:02:46.723Z,17.2
2019-01-29T05:03:46.642Z,17.21
2019-01-29T05:04:46.373Z,17.22
2019-01-29T05:05:46.388Z,17.22
2019-01-29T05:06:46.257Z,17.24
2019-01-29T05:07:46.510Z,17.25
2019-01-29T05:08:46.780Z,17.26
2019-01-29T05:09:46.561Z,17.28
2019-01-29T05:10:46.597Z,17.29
2019-01-29T05:11:46.333Z,17.31
2019-01-29T05:12:46.399Z,17.32
2019-01-29T05:13:46.608Z,17.34
2019-01-29T05:14:46.589Z,17.36
2019-01-29T05:15:46.503Z,17.37
2019-01-29T05:16:46.593Z,17.39
2019-01-29T05:17:46.370Z,17.41
2019-01-29T05:18:46.239Z,17.42
2019-01-29T05:19:46.578Z,17.44
2019-01-29T05:20:46.442Z,17.45
2019-01-29T05:21:46.656Z,17.48
2019-01-29T05:22:46.674Z,17.49
2019-01-29T05:23:46.389Z,17.5
2019-01-29T05:24:46.703Z,17.51
2019-01-29T05:25:46.275Z,17.55
2019-01-29T05:26:46.596Z,17.57
2019-01-29T05:27:46.724Z,17.58
2019-01-29T05:28:46.419Z,17.61
2019-01-29T05:29:46.337Z,17.62
2019-01-29T05:30:46.722Z,17.64
2019-01-29T05:31:46.137Z,17.66
2019-01-29T05:32:46.678Z,17.68
2019-01-29T05:33:46.743Z,17.69
2019-01-29T05:34:46.357Z,17.69
2019-01-29T05:35:46.377Z,17.72
2019-01-29T05:36:46.437Z,17.73
2019-01-29T05:37:46.221Z,17.75
2019-01-29T05:38:46.792Z,17.76
2019-01-29T05:39:46.597Z,17.77
2019-01-29T05:40:46.785Z,17.8
2019-01-29T05:41:46.627Z,17.8
2019-01-29T05:42:46.675Z,17.82
2019-01-29T05:43:47.010Z,17.85
2019-01-29T05:44:46.802Z,17.86
2019-01-29T05:45:47.118Z,17.86
2019-01-29T05:46:47.347Z,17.89
2019-01-29T05:47:47.450Z,17.89
2019-01-29T05:48:46.584Z,17.91
2019-01-29T05:49:46.510Z,17.92
2019-01-29T05:50:46.387Z,17.93
2019-01-29T05:51:46.940Z,17.94
2019-01-29T05:52:48.383Z,17.95
2019-01-29T05:53:46.735Z,17.96
2019-01-29T05:54:46.350Z,17.98
2019-01-29T05:55:47.041Z,17.99
2019-01-29T05:56:47.459Z,18
2019-01-29T05:57:46.977Z,18
2019-01-29T05:58:47.905Z,18.03
2019-01-29T05:59:46.707Z,18.03
2019-01-29T06:00:48.387Z,18.04
2019-01-29T06:01:46.908Z,18.05
2019-01-29T06:02:48.279Z,18.06
2019-01-29T06:03:46.826Z,18.08
2019-01-29T06:04:46.631Z,18.09
2019-01-29T06:05:46.423Z,18.09
2019-01-29T06:06:48.371Z,18.11
2019-01-29T06:07:47.054Z,18.12
2019-01-29T06:08:46.339Z,18.14
2019-01-29T06:09:46.543Z,18.15
2019-01-29T06:10:46.655Z,18.16
2019-01-29T06:11:46.332Z,18.21
2019-01-29T06:12:46.680Z,18.21
2019-01-29T06:13:46.578Z,18.23
2019-01-29T06:14:47.453Z,18.25
2019-01-29T06:15:46.520Z,18.28
2019-01-29T06:16:46.281Z,18.29
2019-01-29T06:17:46.720Z,18.3
2019-01-29T06:18:46.513Z,18.32
2019-01-29T06:19:46.367Z,18.35
2019-01-29T06:20:46.740Z,18.35
2019-01-29T06:21:46.466Z,18.39
2019-01-29T06:22:46.503Z,18.42
2019-01-29T06:23:46.683Z,18.41
2019-01-29T06:24:46.968Z,18.4
2019-01-29T06:25:47.091Z,18.19
2019-01-29T06:26:46.313Z,17.88
2019-01-29T06:27:46.153Z,17.66
2019-01-29T06:28:46.371Z,17.54
2019-01-29T06:29:46.667Z,17.33
2019-01-29T06:30:46.613Z,17.25
2019-01-29T06:31:46.607Z,17.05
2019-01-29T06:32:46.716Z,17.01
2019-01-29T06:33:46.784Z,16.9
2019-01-29T06:34:46.634Z,17.05
2019-01-29T06:35:46.294Z,17.16
2019-01-29T06:36:46.644Z,17.26
2019-01-29T06:37:46.301Z,17.35
2019-01-29T06:38:46.667Z,17.42
2019-01-29T06:39:46.869Z,17.49
2019-01-29T06:40:46.672Z,17.55
2019-01-29T06:41:46.692Z,17.61
2019-01-29T06:42:46.593Z,17.65
2019-01-29T06:43:46.376Z,17.69
2019-01-29T06:44:46.214Z,17.73
2019-01-29T06:45:46.327Z,17.77
2019-01-29T06:46:47.013Z,17.8
2019-01-29T06:47:46.509Z,17.83
2019-01-29T06:48:46.210Z,17.87
2019-01-29T06:49:46.428Z,17.9
2019-01-29T06:50:47.305Z,17.94
2019-01-29T06:51:46.251Z,17.96
2019-01-29T06:52:46.364Z,18
2019-01-29T06:53:46.667Z,18.01
2019-01-29T06:54:46.240Z,18.04
2019-01-29T06:55:46.694Z,18.07
2019-01-29T06:56:47.310Z,18.09
2019-01-29T06:57:54.430Z,18.11
2019-01-29T06:58:46.552Z,18.14
2019-01-29T06:59:46.331Z,18.16
2019-01-29T07:00:46.390Z,18.19
2019-01-29T07:01:46.220Z,18.21
2019-01-29T07:02:46.287Z,18.22
2019-01-29T07:03:46.669Z,18.24
2019-01-29T07:04:47.151Z,18.26
2019-01-29T07:05:46.453Z,18.27
2019-01-29T07:06:46.771Z,18.29
2019-01-29T07:07:46.258Z,18.31
2019-01-29T07:08:46.361Z,18.32
2019-01-29T07:09:46.288Z,18.34
2019-01-29T07:10:47.007Z,18.35
2019-01-29T07:11:46.726Z,18.36
2019-01-29T07:12:46.794Z,18.38
2019-01-29T07:13:46.708Z,18.39
2019-01-29T07:14:46.360Z,18.4
2019-01-29T07:15:46.331Z,18.43
2019-01-29T07:16:46.352Z,18.44
2019-01-29T07:17:46.470Z,18.46
2019-01-29T07:18:46.638Z,18.47
2019-01-29T07:19:46.256Z,18.49
2019-01-29T07:20:46.974Z,18.49
2019-01-29T07:21:46.316Z,18.5
2019-01-29T07:22:46.666Z,18.51
2019-01-29T07:23:46.497Z,18.54
2019-01-29T07:24:46.219Z,18.54
2019-01-29T07:25:46.516Z,18.54
2019-01-29T07:26:46.638Z,18.58
2019-01-29T07:27:46.604Z,18.56
2019-01-29T07:28:46.920Z,18.55
2019-01-29T07:29:46.419Z,18.54
2019-01-29T07:30:46.327Z,18.59
2019-01-29T07:31:46.734Z,18.58
2019-01-29T07:32:46.540Z,18.6
2019-01-29T07:33:46.178Z,18.61
2019-01-29T07:34:46.663Z,18.61
2019-01-29T07:35:48.349Z,18.66
2019-01-29T07:36:46.843Z,18.67
2019-01-29T07:37:46.367Z,18.66
2019-01-29T07:38:46.797Z,18.69
2019-01-29T07:39:46.360Z,18.7
2019-01-29T07:40:46.691Z,18.69
2019-01-29T07:41:46.702Z,18.69
2019-01-29T07:42:46.366Z,18.72
2019-01-29T07:43:46.721Z,18.71
2019-01-29T07:44:46.747Z,18.72
2019-01-29T07:45:46.171Z,18.74
2019-01-29T07:46:46.841Z,18.74
2019-01-29T07:47:46.248Z,18.76
2019-01-29T07:48:46.876Z,18.78
2019-01-29T07:49:46.409Z,18.79
2019-01-29T07:50:46.571Z,18.79
2019-01-29T07:51:46.413Z,18.83
2019-01-29T07:52:46.341Z,18.84
2019-01-29T07:53:46.711Z,18.84
2019-01-29T07:54:51.168Z,18.86
2019-01-29T07:55:46.606Z,18.85
2019-01-29T07:56:47.175Z,18.86
2019-01-29T07:57:46.638Z,18.87
2019-01-29T07:58:46.923Z,18.88
2019-01-29T07:59:46.566Z,18.89
2019-01-29T08:00:46.747Z,18.9
2019-01-29T08:01:47.677Z,18.89
2019-01-29T08:02:46.492Z,18.91
2019-01-29T08:03:46.970Z,18.93
2019-01-29T08:04:47.584Z,18.94
2019-01-29T08:05:46.977Z,18.96
2019-01-29T08:06:46.481Z,18.97
2019-01-29T08:07:47.001Z,18.97
2019-01-29T08:08:46.319Z,18.98
2019-01-29T08:09:46.710Z,19
2019-01-29T08:10:46.627Z,18.99
2019-01-29T08:11:46.786Z,19.01
2019-01-29T08:12:46.461Z,19.03
2019-01-29T08:13:46.573Z,19.03
2019-01-29T08:14:46.271Z,19.03
2019-01-29T08:15:46.648Z,19.04
2019-01-29T08:16:46.650Z,19.06
2019-01-29T08:17:46.307Z,19.05
2019-01-29T08:18:46.771Z,19.05
2019-01-29T08:19:46.579Z,19.07
2019-01-29T08:20:46.685Z,19.09
2019-01-29T08:21:46.692Z,19.09
2019-01-29T08:22:46.496Z,19.08
2019-01-29T08:23:46.298Z,19.09
2019-01-29T08:24:51.746Z,19.11
2019-01-29T08:25:48.267Z,19.12
2019-01-29T08:26:46.825Z,19.12
2019-01-29T08:27:46.324Z,19.15
2019-01-29T08:28:46.228Z,19.13
2019-01-29T08:29:46.574Z,19.15
2019-01-29T08:30:46.299Z,19.15
2019-01-29T08:31:48.256Z,19.17
2019-01-29T08:32:46.769Z,19.15
2019-01-29T08:33:46.148Z,19.18
2019-01-29T08:34:46.388Z,19.18
2019-01-29T08:35:46.499Z,19.2
2019-01-29T08:36:46.595Z,19.2
2019-01-29T08:37:47.006Z,19.2
2019-01-29T08:38:47.119Z,19.21
2019-01-29T08:39:46.561Z,19.21
2019-01-29T08:40:46.361Z,19.21
2019-01-29T08:41:46.626Z,19.22
2019-01-29T08:42:46.367Z,19.23
2019-01-29T08:43:46.449Z,19.24
2019-01-29T08:44:46.658Z,19.24
2019-01-29T08:45:46.255Z,19.24
2019-01-29T08:46:46.198Z,19.26
2019-01-29T08:47:46.211Z,19.25
2019-01-29T08:48:46.159Z,19.26
2019-01-29T08:49:46.991Z,19.27
2019-01-29T08:50:46.269Z,19.27
2019-01-29T08:51:46.712Z,19.3
2019-01-29T08:52:46.350Z,19.28
2019-01-29T08:53:46.212Z,19.31
2019-01-29T08:54:46.359Z,19.3
2019-01-29T08:55:46.353Z,19.29
2019-01-29T08:56:46.196Z,19.31
2019-01-29T08:57:46.348Z,19.31
2019-01-29T08:58:46.416Z,19.32
2019-01-29T08:59:46.459Z,19.32
2019-01-29T09:00:46.758Z,19.34
2019-01-29T09:01:46.449Z,19.33
2019-01-29T09:02:47.803Z,19.38
2019-01-29T09:03:46.208Z,19.35
2019-01-29T09:04:46.976Z,19.33
2019-01-29T09:05:46.644Z,19.32
2019-01-29T09:06:46.632Z,19.32
2019-01-29T09:07:46.384Z,19.31
2019-01-29T09:08:46.282Z,19.31
2019-01-29T09:09:46.273Z,19.31
2019-01-29T09:10:46.640Z,19.29
2019-01-29T09:11:46.861Z,19.29
2019-01-29T09:12:46.406Z,19.29
2019-01-29T09:13:46.601Z,19.36
2019-01-29T09:14:46.453Z,19.32
2019-01-29T09:15:46.731Z,19.33
2019-01-29T09:16:46.877Z,19.32
2019-01-29T09:17:46.587Z,19.33
2019-01-29T09:18:46.382Z,19.34
2019-01-29T09:19:47.012Z,19.34
2019-01-29T09:20:46.615Z,19.33
2019-01-29T09:21:46.245Z,19.35
2019-01-29T09:22:46.925Z,19.34
2019-01-29T09:23:46.415Z,19.37
2019-01-29T09:24:46.625Z,19.38
2019-01-29T09:25:46.734Z,19.38
2019-01-29T09:26:46.854Z,19.38
2019-01-29T09:27:46.366Z,19.38
2019-01-29T09:28:46.660Z,19.39
2019-01-29T09:29:46.245Z,19.39
2019-01-29T09:30:46.394Z,19.39
2019-01-29T09:31:46.676Z,19.41
2019-01-29T09:32:46.900Z,19.41
2019-01-29T09:33:47.251Z,19.41
2019-01-29T09:34:46.805Z,19.4
2019-01-29T09:35:46.836Z,19.4
2019-01-29T09:36:46.733Z,19.41
2019-01-29T09:37:46.630Z,19.41
2019-01-29T09:38:46.257Z,19.43
2019-01-29T09:39:46.392Z,19.41
2019-01-29T09:40:48.356Z,19.44
2019-01-29T09:41:46.660Z,19.42
2019-01-29T09:42:47.278Z,19.45
2019-01-29T09:43:46.460Z,19.45
2019-01-29T09:44:48.194Z,19.45
2019-01-29T09:45:46.340Z,19.46
2019-01-29T09:46:48.026Z,19.46
2019-01-29T09:47:46.148Z,19.45
2019-01-29T09:48:46.915Z,19.45
2019-01-29T09:49:46.171Z,19.51
2019-01-29T09:50:46.420Z,19.5
2019-01-29T09:51:46.471Z,19.52
2019-01-29T09:52:46.289Z,19.5
2019-01-29T09:53:46.478Z,19.51
2019-01-29T09:54:46.746Z,19.5
2019-01-29T09:55:46.444Z,19.5
2019-01-29T09:56:46.478Z,19.51
2019-01-29T09:57:46.817Z,19.53
2019-01-29T09:58:46.539Z,19.54
2019-01-29T09:59:46.373Z,19.51
2019-01-29T10:00:47.002Z,19.51
2019-01-29T10:01:48.035Z,19.52
2019-01-29T10:02:46.713Z,19.51
2019-01-29T10:03:46.274Z,19.52
2019-01-29T10:04:46.553Z,19.52
2019-01-29T10:05:46.200Z,19.53
2019-01-29T10:06:46.520Z,19.54
2019-01-29T10:07:46.242Z,19.55
2019-01-29T10:08:48.288Z,19.55
2019-01-29T10:09:46.649Z,19.59
2019-01-29T10:10:46.363Z,19.58
2019-01-29T10:11:46.778Z,19.56
2019-01-29T10:12:46.534Z,19.57
2019-01-29T10:13:46.399Z,19.57
2019-01-29T10:14:47.114Z,19.58
2019-01-29T10:15:46.621Z,19.58
2019-01-29T10:16:46.408Z,19.6
2019-01-29T10:17:46.361Z,19.59
2019-01-29T10:18:46.934Z,19.58
2019-01-29T10:19:46.242Z,19.59
2019-01-29T10:20:46.764Z,19.6
2019-01-29T10:21:46.269Z,19.6
2019-01-29T10:22:46.351Z,19.61
2019-01-29T10:23:46.472Z,19.6
2019-01-29T10:24:47.276Z,19.64
2019-01-29T10:25:46.887Z,19.62
2019-01-29T10:26:47.720Z,19.62
2019-01-29T10:27:46.342Z,19.65
2019-01-29T10:28:46.765Z,19.63
2019-01-29T10:29:47.009Z,19.65
2019-01-29T10:30:46.219Z,19.63
2019-01-29T10:31:46.276Z,19.64
2019-01-29T10:32:46.632Z,19.64
2019-01-29T10:33:46.593Z,19.65
2019-01-29T10:34:46.425Z,19.67
2019-01-29T10:35:46.261Z,19.66
2019-01-29T10:36:46.499Z,19.66
2019-01-29T10:37:46.547Z,19.67
2019-01-29T10:38:46.599Z,19.66
2019-01-29T10:39:46.883Z,19.66
2019-01-29T10:40:47.076Z,19.66
2019-01-29T10:41:46.324Z,19.66
2019-01-29T10:42:48.232Z,19.67
2019-01-29T10:43:47.935Z,19.7
2019-01-29T10:44:46.491Z,19.67
2019-01-29T10:45:46.614Z,19.71
2019-01-29T10:46:46.461Z,19.69
2019-01-29T10:47:46.612Z,19.7
2019-01-29T10:48:46.326Z,19.69
2019-01-29T10:49:47.164Z,19.69
2019-01-29T10:50:46.184Z,19.7
2019-01-29T10:51:46.395Z,19.72
2019-01-29T10:52:46.466Z,19.71
2019-01-29T10:53:46.718Z,19.71
2019-01-29T10:54:46.600Z,19.71
2019-01-29T10:55:47.561Z,19.71
2019-01-29T10:56:47.431Z,19.71
2019-01-29T10:57:46.275Z,19.73
2019-01-29T10:58:46.707Z,19.72
2019-01-29T10:59:46.333Z,19.74
2019-01-29T11:00:46.263Z,19.74
2019-01-29T11:01:46.337Z,19.74
2019-01-29T11:02:46.645Z,19.74
2019-01-29T11:03:46.149Z,19.74
2019-01-29T11:04:49.338Z,19.75
2019-01-29T11:05:47.242Z,19.76
2019-01-29T11:06:47.255Z,19.76
2019-01-29T11:07:47.120Z,19.76
2019-01-29T11:08:46.164Z,19.75
2019-01-29T11:09:48.388Z,19.77
2019-01-29T11:10:46.700Z,19.77
2019-01-29T11:11:46.976Z,19.77
2019-01-29T11:12:46.900Z,19.78
2019-01-29T11:13:46.138Z,19.79
2019-01-29T11:14:46.426Z,19.79
2019-01-29T11:15:46.562Z,19.79
2019-01-29T11:16:46.254Z,19.8
2019-01-29T11:17:46.279Z,19.79
2019-01-29T11:18:46.329Z,19.81
2019-01-29T11:19:47.376Z,19.83
2019-01-29T11:20:47.702Z,19.82
2019-01-29T11:21:46.189Z,19.81
2019-01-29T11:22:46.305Z,19.82
2019-01-29T11:23:46.342Z,19.82
2019-01-29T11:24:46.319Z,19.81
2019-01-29T11:25:55.365Z,19.82
2019-01-29T11:26:46.435Z,19.82
2019-01-29T11:27:46.671Z,19.84
2019-01-29T11:28:46.781Z,19.84
2019-01-29T11:29:46.997Z,19.83
2019-01-29T11:30:46.230Z,19.84
2019-01-29T11:31:47.299Z,19.84
2019-01-29T11:32:46.387Z,19.84
2019-01-29T11:33:48.362Z,19.85
2019-01-29T11:34:46.333Z,19.85
2019-01-29T11:35:46.801Z,19.85
2019-01-29T11:36:47.197Z,19.86
2019-01-29T11:37:47.017Z,19.87
2019-01-29T11:38:46.105Z,19.85
2019-01-29T11:39:46.398Z,19.86
2019-01-29T11:40:46.559Z,19.87
2019-01-29T11:41:46.258Z,19.88
2019-01-29T11:42:46.970Z,19.89
2019-01-29T11:43:46.747Z,19.87
2019-01-29T11:44:46.259Z,19.87
2019-01-29T11:45:46.768Z,19.88
2019-01-29T11:46:47.065Z,19.88
2019-01-29T11:47:46.275Z,19.89
2019-01-29T11:48:46.633Z,19.87
2019-01-29T11:49:46.490Z,19.89
2019-01-29T11:50:46.393Z,19.89
2019-01-29T11:51:46.971Z,19.88
2019-01-29T11:52:46.350Z,19.89
2019-01-29T11:53:46.715Z,19.89
2019-01-29T11:54:47.384Z,19.91
2019-01-29T11:55:46.295Z,19.9
2019-01-29T11:56:46.952Z,19.92
2019-01-29T11:57:46.888Z,19.91
2019-01-29T11:58:48.108Z,19.89
2019-01-29T11:59:46.663Z,19.89
2019-01-29T12:00:46.148Z,19.89
2019-01-29T12:01:46.411Z,19.87
2019-01-29T12:02:46.325Z,19.87
2019-01-29T12:03:46.499Z,19.86
2019-01-29T12:04:46.210Z,19.86
2019-01-29T12:05:46.716Z,19.88
2019-01-29T12:06:46.142Z,19.86
2019-01-29T12:07:46.262Z,19.87
2019-01-29T12:08:46.763Z,19.86
2019-01-29T12:09:46.645Z,19.87
2019-01-29T12:10:46.647Z,19.86
2019-01-29T12:11:46.259Z,19.89
2019-01-29T12:12:47.586Z,19.89
2019-01-29T12:13:46.325Z,19.87
2019-01-29T12:14:46.282Z,19.86
2019-01-29T12:15:46.593Z,19.85
2019-01-29T12:16:46.689Z,19.85
2019-01-29T12:17:46.709Z,19.85
2019-01-29T12:18:46.620Z,19.84
2019-01-29T12:19:46.144Z,19.84
2019-01-29T12:20:46.289Z,19.84
2019-01-29T12:21:46.740Z,19.84
2019-01-29T12:22:46.222Z,19.84
2019-01-29T12:23:46.358Z,19.83
2019-01-29T12:24:46.385Z,19.83
2019-01-29T12:25:46.640Z,19.82
2019-01-29T12:26:46.195Z,19.81
2019-01-29T12:27:46.676Z,19.82
2019-01-29T12:28:46.285Z,19.81
2019-01-29T12:29:46.189Z,19.81
2019-01-29T12:30:46.384Z,19.81
2019-01-29T12:31:46.264Z,19.81
2019-01-29T12:32:46.346Z,19.81
2019-01-29T12:33:46.410Z,19.81
2019-01-29T12:34:46.286Z,19.8
2019-01-29T12:35:46.290Z,19.84
2019-01-29T12:36:47.436Z,19.84
2019-01-29T12:37:46.334Z,19.85
2019-01-29T12:38:46.391Z,19.85
2019-01-29T12:39:46.350Z,19.86
2019-01-29T12:40:46.314Z,19.88
2019-01-29T12:41:46.425Z,19.87
2019-01-29T12:42:46.386Z,19.88
2019-01-29T12:43:46.368Z,19.89
2019-01-29T12:44:46.110Z,19.9
2019-01-29T12:45:48.151Z,19.9
2019-01-29T12:46:46.239Z,19.91
2019-01-29T12:47:46.061Z,19.88
2019-01-29T12:48:46.162Z,19.71
2019-01-29T12:49:46.261Z,19.73
2019-01-29T12:50:46.303Z,19.75
2019-01-29T12:51:47.260Z,19.75
2019-01-29T12:52:46.561Z,19.76
2019-01-29T12:53:46.095Z,19.79
2019-01-29T12:54:46.671Z,19.8
2019-01-29T12:55:46.120Z,19.81